sensor_id;sensor_type;location;lat;lon;timestamp;pressure;altitude;pressure_sealevel;temperature;humidity
84271;BME280;74614;50.032;19.566;2024-01-30T00:00:27;100549.97;;;-2.72;72.08
84271;BME280;74614;50.032;19.566;2024-01-30T00:02:27;100550.96;;;-2.75;72.24
84271;BME280;74614;50.032;19.566;2024-01-30T00:04:26;100545.60;;;-2.81;71.68
84271;BME280;74614;50.032;19.566;2024-01-30T00:06:29;100548.31;;;-2.83;72.48
84271;BME280;74614;50.032;19.566;2024-01-30T00:08:23;100544.45;;;-2.83;72.26
84271;BME280;74614;50.032;19.566;2024-01-30T00:10:24;100544.19;;;-2.89;71.95
84271;BME280;74614;50.032;19.566;2024-01-30T00:12:26;100548.49;;;-2.84;72.24
84271;BME280;74614;50.032;19.566;2024-01-30T00:14:23;100550.52;;;-2.86;72.23
84271;BME280;74614;50.032;19.566;2024-01-30T00:16:29;100553.95;;;-2.79;72.25
84271;BME280;74614;50.032;19.566;2024-01-30T00:18:24;100554.07;;;-2.79;72.51
84271;BME280;74614;50.032;19.566;2024-01-30T00:20:25;100559.75;;;-2.78;72.23
84271;BME280;74614;50.032;19.566;2024-01-30T00:22:29;100555.90;;;-2.68;72.34
84271;BME280;74614;50.032;19.566;2024-01-30T00:24:24;100551.40;;;-2.68;71.93
84271;BME280;74614;50.032;19.566;2024-01-30T00:26:35;100550.44;;;-2.73;71.29
84271;BME280;74614;50.032;19.566;2024-01-30T00:28:30;100552.89;;;-2.77;71.20
84271;BME280;74614;50.032;19.566;2024-01-30T00:30:29;100544.74;;;-2.86;71.64
84271;BME280;74614;50.032;19.566;2024-01-30T00:32:24;100551.13;;;-2.94;71.84
84271;BME280;74614;50.032;19.566;2024-01-30T00:34:24;100549.69;;;-2.98;72.39
84271;BME280;74614;50.032;19.566;2024-01-30T00:36:24;100549.92;;;-2.98;72.69
84271;BME280;74614;50.032;19.566;2024-01-30T00:38:25;100547.36;;;-3.02;72.35
84271;BME280;74614;50.032;19.566;2024-01-30T00:40:26;100547.25;;;-3.02;72.13
84271;BME280;74614;50.032;19.566;2024-01-30T00:42:23;100547.98;;;-2.91;72.52
84271;BME280;74614;50.032;19.566;2024-01-30T00:44:24;100551.77;;;-2.95;71.48
84271;BME280;74614;50.032;19.566;2024-01-30T00:46:25;100548.83;;;-3.00;71.50
84271;BME280;74614;50.032;19.566;2024-01-30T00:48:27;100550.59;;;-3.09;71.60
84271;BME280;74614;50.032;19.566;2024-01-30T00:50:26;100547.71;;;-3.14;72.03
84271;BME280;74614;50.032;19.566;2024-01-30T00:52:24;100550.70;;;-3.05;72.32
84271;BME280;74614;50.032;19.566;2024-01-30T00:54:26;100540.39;;;-3.09;72.39
84271;BME280;74614;50.032;19.566;2024-01-30T00:56:24;100544.06;;;-3.12;72.28
84271;BME280;74614;50.032;19.566;2024-01-30T00:58:24;100542.25;;;-3.14;72.63
84271;BME280;74614;50.032;19.566;2024-01-30T01:00:33;100543.75;;;-3.16;72.04
84271;BME280;74614;50.032;19.566;2024-01-30T01:03:24;100542.35;;;-3.24;72.33
84271;BME280;74614;50.032;19.566;2024-01-30T01:05:29;100539.14;;;-3.28;71.96
84271;BME280;74614;50.032;19.566;2024-01-30T01:07:27;100535.34;;;-3.32;71.58
84271;BME280;74614;50.032;19.566;2024-01-30T01:09:32;100533.18;;;-3.28;72.03
84271;BME280;74614;50.032;19.566;2024-01-30T01:11:24;100533.94;;;-3.32;72.19
84271;BME280;74614;50.032;19.566;2024-01-30T01:13:27;100522.08;;;-3.33;72.16
84271;BME280;74614;50.032;19.566;2024-01-30T01:15:23;100526.79;;;-3.30;72.93
84271;BME280;74614;50.032;19.566;2024-01-30T01:17:29;100521.10;;;-3.24;72.95
84271;BME280;74614;50.032;19.566;2024-01-30T01:19:29;100519.76;;;-3.22;71.88
84271;BME280;74614;50.032;19.566;2024-01-30T01:21:29;100522.32;;;-3.15;72.05
84271;BME280;74614;50.032;19.566;2024-01-30T01:23:24;100518.58;;;-3.10;72.40
84271;BME280;74614;50.032;19.566;2024-01-30T01:25:29;100517.17;;;-3.18;72.04
84271;BME280;74614;50.032;19.566;2024-01-30T01:27:24;100519.71;;;-3.25;72.43
84271;BME280;74614;50.032;19.566;2024-01-30T01:29:34;100521.05;;;-3.22;73.11
84271;BME280;74614;50.032;19.566;2024-01-30T01:32:24;100518.06;;;-3.01;73.27
84271;BME280;74614;50.032;19.566;2024-01-30T01:34:27;100521.77;;;-3.01;72.25
84271;BME280;74614;50.032;19.566;2024-01-30T01:36:29;100523.19;;;-2.90;71.94
84271;BME280;74614;50.032;19.566;2024-01-30T01:38:24;100518.96;;;-2.85;71.70
84271;BME280;74614;50.032;19.566;2024-01-30T01:40:24;100523.50;;;-2.97;71.49
84271;BME280;74614;50.032;19.566;2024-01-30T01:42:24;100521.38;;;-2.98;71.94
84271;BME280;74614;50.032;19.566;2024-01-30T01:44:24;100513.73;;;-3.01;72.17
84271;BME280;74614;50.032;19.566;2024-01-30T01:46:27;100510.33;;;-3.12;71.33
84271;BME280;74614;50.032;19.566;2024-01-30T01:48:24;100511.61;;;-3.18;72.00
84271;BME280;74614;50.032;19.566;2024-01-30T01:50:24;100503.84;;;-3.21;72.68
84271;BME280;74614;50.032;19.566;2024-01-30T01:52:27;100511.04;;;-3.26;72.35
84271;BME280;74614;50.032;19.566;2024-01-30T01:54:26;100512.61;;;-3.26;72.90
84271;BME280;74614;50.032;19.566;2024-01-30T01:56:24;100505.02;;;-3.27;72.21
84271;BME280;74614;50.032;19.566;2024-01-30T01:58:27;100508.44;;;-3.33;72.10
84271;BME280;74614;50.032;19.566;2024-01-30T02:00:25;100502.70;;;-3.34;72.71
84271;BME280;74614;50.032;19.566;2024-01-30T02:02:27;100500.92;;;-3.33;72.40
84271;BME280;74614;50.032;19.566;2024-01-30T02:04:29;100500.41;;;-3.33;72.65
84271;BME280;74614;50.032;19.566;2024-01-30T02:06:24;100500.80;;;-3.21;72.81
84271;BME280;74614;50.032;19.566;2024-01-30T02:08:29;100499.63;;;-3.25;72.07
84271;BME280;74614;50.032;19.566;2024-01-30T02:10:26;100499.10;;;-3.32;71.83
84271;BME280;74614;50.032;19.566;2024-01-30T02:12:25;100503.13;;;-3.33;71.92
84271;BME280;74614;50.032;19.566;2024-01-30T02:14:24;100504.03;;;-3.39;72.29
84271;BME280;74614;50.032;19.566;2024-01-30T02:16:30;100507.76;;;-3.25;72.51
84271;BME280;74614;50.032;19.566;2024-01-30T02:18:24;100507.46;;;-3.24;71.31
84271;BME280;74614;50.032;19.566;2024-01-30T02:20:25;100493.72;;;-3.36;71.53
84271;BME280;74614;50.032;19.566;2024-01-30T02:22:24;100496.72;;;-3.37;72.15
84271;BME280;74614;50.032;19.566;2024-01-30T02:24:24;100490.57;;;-3.31;72.28
84271;BME280;74614;50.032;19.566;2024-01-30T02:26:23;100492.88;;;-3.37;71.54
84271;BME280;74614;50.032;19.566;2024-01-30T02:28:33;100492.14;;;-3.41;71.70
84271;BME280;74614;50.032;19.566;2024-01-30T02:30:24;100495.39;;;-3.41;72.04
84271;BME280;74614;50.032;19.566;2024-01-30T02:32:24;100493.25;;;-3.33;72.19
84271;BME280;74614;50.032;19.566;2024-01-30T02:34:25;100492.60;;;-3.28;72.19
84271;BME280;74614;50.032;19.566;2024-01-30T02:36:23;100491.47;;;-3.23;71.94
84271;BME280;74614;50.032;19.566;2024-01-30T02:38:23;100492.42;;;-3.28;71.29
84271;BME280;74614;50.032;19.566;2024-01-30T02:40:26;100495.13;;;-3.39;71.52
84271;BME280;74614;50.032;19.566;2024-01-30T02:42:23;100488.05;;;-3.48;71.72
84271;BME280;74614;50.032;19.566;2024-01-30T02:44:24;100488.01;;;-3.41;72.08
84271;BME280;74614;50.032;19.566;2024-01-30T02:46:23;100487.49;;;-3.40;72.01
84271;BME280;74614;50.032;19.566;2024-01-30T02:48:24;100486.52;;;-3.45;71.70
84271;BME280;74614;50.032;19.566;2024-01-30T02:50:23;100485.22;;;-3.51;71.55
84271;BME280;74614;50.032;19.566;2024-01-30T02:52:25;100488.18;;;-3.52;72.17
84271;BME280;74614;50.032;19.566;2024-01-30T02:54:24;100479.42;;;-3.48;72.02
84271;BME280;74614;50.032;19.566;2024-01-30T02:56:23;100474.59;;;-3.51;71.83
84271;BME280;74614;50.032;19.566;2024-01-30T02:58:26;100481.74;;;-3.44;72.14
84271;BME280;74614;50.032;19.566;2024-01-30T03:00:24;100478.69;;;-3.43;71.26
84271;BME280;74614;50.032;19.566;2024-01-30T03:02:25;100479.38;;;-3.54;70.67
84271;BME280;74614;50.032;19.566;2024-01-30T03:04:24;100479.72;;;-3.65;71.05
84271;BME280;74614;50.032;19.566;2024-01-30T03:06:28;100477.68;;;-3.63;71.79
84271;BME280;74614;50.032;19.566;2024-01-30T03:08:24;100474.54;;;-3.46;71.56
84271;BME280;74614;50.032;19.566;2024-01-30T03:10:25;100474.57;;;-3.34;71.41
84271;BME280;74614;50.032;19.566;2024-01-30T03:12:24;100472.50;;;-3.26;71.61
84271;BME280;74614;50.032;19.566;2024-01-30T03:14:25;100480.12;;;-3.25;71.16
84271;BME280;74614;50.032;19.566;2024-01-30T03:16:24;100483.83;;;-3.33;71.31
84271;BME280;74614;50.032;19.566;2024-01-30T03:18:27;100477.53;;;-3.44;71.05
84271;BME280;74614;50.032;19.566;2024-01-30T03:20:23;100477.29;;;-3.56;70.88
84271;BME280;74614;50.032;19.566;2024-01-30T03:22:26;100478.47;;;-3.58;71.44
84271;BME280;74614;50.032;19.566;2024-01-30T03:24:23;100478.23;;;-3.65;71.35
84271;BME280;74614;50.032;19.566;2024-01-30T03:26:24;100475.38;;;-3.75;71.13
84271;BME280;74614;50.032;19.566;2024-01-30T03:28:22;100466.89;;;-3.81;71.40
84271;BME280;74614;50.032;19.566;2024-01-30T03:30:24;100471.25;;;-3.85;71.62
84271;BME280;74614;50.032;19.566;2024-01-30T03:32:23;100473.81;;;-3.83;72.22
84271;BME280;74614;50.032;19.566;2024-01-30T03:34:23;100468.38;;;-3.87;71.83
84271;BME280;74614;50.032;19.566;2024-01-30T03:36:27;100472.93;;;-3.90;72.08
84271;BME280;74614;50.032;19.566;2024-01-30T03:38:24;100472.08;;;-3.98;71.54
84271;BME280;74614;50.032;19.566;2024-01-30T03:40:25;100471.25;;;-4.03;71.58
84271;BME280;74614;50.032;19.566;2024-01-30T03:42:25;100467.19;;;-4.08;72.02
84271;BME280;74614;50.032;19.566;2024-01-30T03:44:24;100465.97;;;-4.10;71.72
84271;BME280;74614;50.032;19.566;2024-01-30T03:46:26;100469.41;;;-4.10;72.25
84271;BME280;74614;50.032;19.566;2024-01-30T03:48:23;100469.88;;;-3.98;72.52
84271;BME280;74614;50.032;19.566;2024-01-30T03:50:25;100464.46;;;-3.98;71.95
84271;BME280;74614;50.032;19.566;2024-01-30T03:52:23;100472.36;;;-3.99;72.01
84271;BME280;74614;50.032;19.566;2024-01-30T03:54:24;100473.16;;;-3.94;72.72
84271;BME280;74614;50.032;19.566;2024-01-30T03:56:24;100473.99;;;-3.96;71.98
84271;BME280;74614;50.032;19.566;2024-01-30T03:58:23;100470.12;;;-4.02;72.02
84271;BME280;74614;50.032;19.566;2024-01-30T04:00:24;100471.82;;;-4.03;72.24
84271;BME280;74614;50.032;19.566;2024-01-30T04:02:23;100471.37;;;-3.97;72.37
84271;BME280;74614;50.032;19.566;2024-01-30T04:04:29;100476.67;;;-3.97;71.84
84271;BME280;74614;50.032;19.566;2024-01-30T04:06:24;100476.73;;;-4.01;71.77
84271;BME280;74614;50.032;19.566;2024-01-30T04:08:27;100479.18;;;-4.02;71.86
84271;BME280;74614;50.032;19.566;2024-01-30T04:10:23;100487.15;;;-4.01;72.27
84271;BME280;74614;50.032;19.566;2024-01-30T04:12:23;100481.72;;;-3.96;72.24
84271;BME280;74614;50.032;19.566;2024-01-30T04:14:24;100483.18;;;-3.97;72.13
84271;BME280;74614;50.032;19.566;2024-01-30T04:16:26;100475.90;;;-4.04;72.16
84271;BME280;74614;50.032;19.566;2024-01-30T04:18:24;100479.35;;;-4.02;72.33
84271;BME280;74614;50.032;19.566;2024-01-30T04:20:25;100481.54;;;-3.98;73.37
84271;BME280;74614;50.032;19.566;2024-01-30T04:22:28;100480.24;;;-4.01;72.60
84271;BME280;74614;50.032;19.566;2024-01-30T04:24:24;100476.85;;;-4.01;72.67
84271;BME280;74614;50.032;19.566;2024-01-30T04:26:34;100475.98;;;-3.99;72.85
84271;BME280;74614;50.032;19.566;2024-01-30T04:29:30;100475.86;;;-3.94;72.91
84271;BME280;74614;50.032;19.566;2024-01-30T04:31:28;100474.55;;;-3.93;72.49
84271;BME280;74614;50.032;19.566;2024-01-30T04:33:33;100472.00;;;-3.98;72.32
84271;BME280;74614;50.032;19.566;2024-01-30T04:35:29;100472.21;;;-4.03;72.35
84271;BME280;74614;50.032;19.566;2024-01-30T04:37:30;100469.12;;;-4.07;73.29
84271;BME280;74614;50.032;19.566;2024-01-30T04:39:24;100469.84;;;-4.12;72.14
84271;BME280;74614;50.032;19.566;2024-01-30T04:41:38;100474.59;;;-4.10;72.65
84271;BME280;74614;50.032;19.566;2024-01-30T04:44:26;100478.78;;;-4.04;72.85
84271;BME280;74614;50.032;19.566;2024-01-30T04:46:26;100476.04;;;-4.00;72.67
84271;BME280;74614;50.032;19.566;2024-01-30T04:48:24;100483.70;;;-4.00;72.25
84271;BME280;74614;50.032;19.566;2024-01-30T04:50:24;100485.17;;;-4.00;72.48
84271;BME280;74614;50.032;19.566;2024-01-30T04:52:23;100486.89;;;-3.93;72.51
84271;BME280;74614;50.032;19.566;2024-01-30T04:54:26;100485.98;;;-3.92;72.56
84271;BME280;74614;50.032;19.566;2024-01-30T04:56:24;100480.53;;;-3.96;72.01
84271;BME280;74614;50.032;19.566;2024-01-30T04:58:24;100478.61;;;-4.02;72.04
84271;BME280;74614;50.032;19.566;2024-01-30T05:00:27;100479.67;;;-4.05;72.06
84271;BME280;74614;50.032;19.566;2024-01-30T05:02:27;100479.99;;;-4.06;72.15
84271;BME280;74614;50.032;19.566;2024-01-30T05:04:23;100476.54;;;-3.99;72.59
84271;BME280;74614;50.032;19.566;2024-01-30T05:06:25;100475.30;;;-3.94;72.90
84271;BME280;74614;50.032;19.566;2024-01-30T05:08:23;100477.06;;;-3.95;72.71
84271;BME280;74614;50.032;19.566;2024-01-30T05:10:23;100472.03;;;-3.82;72.75
84271;BME280;74614;50.032;19.566;2024-01-30T05:12:24;100469.67;;;-3.76;72.29
84271;BME280;74614;50.032;19.566;2024-01-30T05:14:23;100469.88;;;-3.81;71.72
84271;BME280;74614;50.032;19.566;2024-01-30T05:16:24;100472.59;;;-3.91;71.66
84271;BME280;74614;50.032;19.566;2024-01-30T05:18:27;100471.26;;;-4.03;71.25
84271;BME280;74614;50.032;19.566;2024-01-30T05:20:25;100476.96;;;-4.11;71.62
84271;BME280;74614;50.032;19.566;2024-01-30T05:22:24;100471.86;;;-4.13;72.24
84271;BME280;74614;50.032;19.566;2024-01-30T05:24:23;100472.58;;;-4.04;72.51
84271;BME280;74614;50.032;19.566;2024-01-30T05:26:26;100478.06;;;-4.06;71.79
84271;BME280;74614;50.032;19.566;2024-01-30T05:28:23;100469.27;;;-4.12;72.12
84271;BME280;74614;50.032;19.566;2024-01-30T05:30:24;100470.74;;;-4.10;72.28
84271;BME280;74614;50.032;19.566;2024-01-30T05:32:24;100472.39;;;-3.98;72.25
84271;BME280;74614;50.032;19.566;2024-01-30T05:34:23;100470.67;;;-3.89;72.30
84271;BME280;74614;50.032;19.566;2024-01-30T05:36:26;100470.16;;;-3.84;71.70
84271;BME280;74614;50.032;19.566;2024-01-30T05:38:27;100474.13;;;-3.92;71.16
84271;BME280;74614;50.032;19.566;2024-01-30T05:40:25;100476.95;;;-4.00;71.51
84271;BME280;74614;50.032;19.566;2024-01-30T05:42:25;100476.68;;;-4.01;71.70
84271;BME280;74614;50.032;19.566;2024-01-30T05:44:24;100478.06;;;-3.99;71.89
84271;BME280;74614;50.032;19.566;2024-01-30T05:46:27;100476.47;;;-3.99;72.00
84271;BME280;74614;50.032;19.566;2024-01-30T05:48:25;100477.40;;;-4.07;71.67
84271;BME280;74614;50.032;19.566;2024-01-30T05:50:28;100471.81;;;-4.15;71.45
84271;BME280;74614;50.032;19.566;2024-01-30T05:52:27;100471.66;;;-4.22;71.77
84271;BME280;74614;50.032;19.566;2024-01-30T05:54:23;100467.68;;;-4.24;72.21
84271;BME280;74614;50.032;19.566;2024-01-30T05:56:24;100471.15;;;-4.19;72.38
84271;BME280;74614;50.032;19.566;2024-01-30T05:58:24;100477.79;;;-4.16;72.05
84271;BME280;74614;50.032;19.566;2024-01-30T06:00:25;100475.51;;;-4.08;72.04
84271;BME280;74614;50.032;19.566;2024-01-30T06:02:23;100478.81;;;-4.10;71.65
84271;BME280;74614;50.032;19.566;2024-01-30T06:04:35;100479.51;;;-4.17;71.65
84271;BME280;74614;50.032;19.566;2024-01-30T06:07:29;100477.40;;;-4.26;72.12
84271;BME280;74614;50.032;19.566;2024-01-30T06:09:29;100481.22;;;-4.28;72.27
84271;BME280;74614;50.032;19.566;2024-01-30T06:11:24;100477.46;;;-4.32;72.42
84271;BME280;74614;50.032;19.566;2024-01-30T06:13:29;100476.19;;;-4.31;72.56
84271;BME280;74614;50.032;19.566;2024-01-30T06:15:26;100480.33;;;-4.32;71.79
84271;BME280;74614;50.032;19.566;2024-01-30T06:17:28;100474.93;;;-4.35;71.94
84271;BME280;74614;50.032;19.566;2024-01-30T06:19:22;100478.50;;;-4.30;72.35
84271;BME280;74614;50.032;19.566;2024-01-30T06:21:26;100473.53;;;-4.32;71.92
84271;BME280;74614;50.032;19.566;2024-01-30T06:23:23;100478.56;;;-4.33;71.97
84271;BME280;74614;50.032;19.566;2024-01-30T06:25:27;100474.28;;;-4.34;72.20
84271;BME280;74614;50.032;19.566;2024-01-30T06:27:25;100471.77;;;-4.21;72.35
84271;BME280;74614;50.032;19.566;2024-01-30T06:29:30;100475.80;;;-4.14;72.56
84271;BME280;74614;50.032;19.566;2024-01-30T06:31:27;100474.99;;;-4.03;72.33
84271;BME280;74614;50.032;19.566;2024-01-30T06:33:31;100473.44;;;-4.05;71.87
84271;BME280;74614;50.032;19.566;2024-01-30T06:35:26;100475.35;;;-4.02;71.70
84271;BME280;74614;50.032;19.566;2024-01-30T06:37:28;100480.75;;;-4.04;71.92
84271;BME280;74614;50.032;19.566;2024-01-30T06:39:23;100476.47;;;-3.99;71.94
84271;BME280;74614;50.032;19.566;2024-01-30T06:41:28;100482.50;;;-3.93;71.76
84271;BME280;74614;50.032;19.566;2024-01-30T06:43:24;100477.19;;;-3.88;72.84
84271;BME280;74614;50.032;19.566;2024-01-30T06:45:29;100477.64;;;-3.71;72.76
84271;BME280;74614;50.032;19.566;2024-01-30T06:47:24;100484.49;;;-3.82;71.69
84271;BME280;74614;50.032;19.566;2024-01-30T06:49:32;100489.98;;;-3.90;71.49
84271;BME280;74614;50.032;19.566;2024-01-30T06:51:23;100486.92;;;-3.98;71.64
84271;BME280;74614;50.032;19.566;2024-01-30T06:53:30;100486.00;;;-4.06;71.42
84271;BME280;74614;50.032;19.566;2024-01-30T06:55:26;100480.99;;;-4.15;71.51
84271;BME280;74614;50.032;19.566;2024-01-30T06:57:34;100486.15;;;-4.24;71.70
84271;BME280;74614;50.032;19.566;2024-01-30T07:00:27;100481.51;;;-4.27;72.79
84271;BME280;74614;50.032;19.566;2024-01-30T07:02:24;100484.59;;;-4.25;72.72
84271;BME280;74614;50.032;19.566;2024-01-30T07:04:26;100482.22;;;-4.25;72.62
84271;BME280;74614;50.032;19.566;2024-01-30T07:06:29;100485.78;;;-4.21;72.90
84271;BME280;74614;50.032;19.566;2024-01-30T07:08:31;100486.78;;;-4.17;72.69
84271;BME280;74614;50.032;19.566;2024-01-30T07:10:26;100481.96;;;-4.13;72.82
84271;BME280;74614;50.032;19.566;2024-01-30T07:12:24;100486.20;;;-4.08;72.89
84271;BME280;74614;50.032;19.566;2024-01-30T07:14:27;100484.70;;;-4.05;72.53
84271;BME280;74614;50.032;19.566;2024-01-30T07:16:24;100485.86;;;-3.98;72.84
84271;BME280;74614;50.032;19.566;2024-01-30T07:18:26;100484.39;;;-3.83;73.27
84271;BME280;74614;50.032;19.566;2024-01-30T07:20:26;100488.30;;;-3.78;72.59
84271;BME280;74614;50.032;19.566;2024-01-30T07:22:26;100483.68;;;-3.76;72.81
84271;BME280;74614;50.032;19.566;2024-01-30T07:24:23;100487.26;;;-3.77;72.51
84271;BME280;74614;50.032;19.566;2024-01-30T07:26:37;100487.49;;;-3.74;72.82
84271;BME280;74614;50.032;19.566;2024-01-30T07:29:27;100484.01;;;-3.66;72.96
84271;BME280;74614;50.032;19.566;2024-01-30T07:31:20;100487.85;;;-3.47;73.63
84271;BME280;74614;50.032;19.566;2024-01-30T07:33:26;100484.18;;;-3.35;73.40
84271;BME280;74614;50.032;19.566;2024-01-30T07:35:19;100484.99;;;-3.20;73.86
84271;BME280;74614;50.032;19.566;2024-01-30T07:37:25;100495.28;;;-2.94;74.13
84271;BME280;74614;50.032;19.566;2024-01-30T07:39:19;100488.37;;;-2.62;73.14
84271;BME280;74614;50.032;19.566;2024-01-30T07:41:24;100481.27;;;-2.34;72.65
84271;BME280;74614;50.032;19.566;2024-01-30T07:43:19;100489.57;;;-2.17;71.65
84271;BME280;74614;50.032;19.566;2024-01-30T07:45:23;100483.32;;;-1.92;71.92
84271;BME280;74614;50.032;19.566;2024-01-30T07:47:24;100485.19;;;-1.61;72.23
84271;BME280;74614;50.032;19.566;2024-01-30T07:49:27;100481.49;;;-1.37;72.31
84271;BME280;74614;50.032;19.566;2024-01-30T07:52:24;100483.64;;;-1.01;71.07
84271;BME280;74614;50.032;19.566;2024-01-30T07:54:23;100477.68;;;-0.79;71.24
84271;BME280;74614;50.032;19.566;2024-01-30T07:56:24;100472.20;;;-0.58;70.94
84271;BME280;74614;50.032;19.566;2024-01-30T07:58:24;100469.26;;;-0.33;70.57
84271;BME280;74614;50.032;19.566;2024-01-30T08:00:24;100466.56;;;-0.24;69.79
84271;BME280;74614;50.032;19.566;2024-01-30T08:02:25;100461.35;;;-0.09;70.09
84271;BME280;74614;50.032;19.566;2024-01-30T08:04:24;100461.26;;;0.02;69.88
84271;BME280;74614;50.032;19.566;2024-01-30T08:06:25;100462.79;;;0.18;69.75
84271;BME280;74614;50.032;19.566;2024-01-30T08:08:23;100465.43;;;0.30;70.41
84271;BME280;74614;50.032;19.566;2024-01-30T08:10:24;100465.75;;;0.53;70.73
84271;BME280;74614;50.032;19.566;2024-01-30T08:12:23;100459.99;;;0.84;70.59
84271;BME280;74614;50.032;19.566;2024-01-30T08:14:25;100461.50;;;1.04;70.48
84271;BME280;74614;50.032;19.566;2024-01-30T08:16:23;100459.71;;;1.21;70.34
84271;BME280;74614;50.032;19.566;2024-01-30T08:18:28;100462.96;;;1.36;70.11
84271;BME280;74614;50.032;19.566;2024-01-30T08:20:23;100460.83;;;1.43;68.66
84271;BME280;74614;50.032;19.566;2024-01-30T08:22:24;100467.77;;;1.37;69.51
84271;BME280;74614;50.032;19.566;2024-01-30T08:24:29;100465.37;;;1.48;69.74
84271;BME280;74614;50.032;19.566;2024-01-30T08:26:24;100472.32;;;1.41;70.01
84271;BME280;74614;50.032;19.566;2024-01-30T08:28:23;100472.64;;;1.33;69.82
84271;BME280;74614;50.032;19.566;2024-01-30T08:30:26;100472.87;;;1.42;69.38
84271;BME280;74614;50.032;19.566;2024-01-30T08:32:27;100478.14;;;1.40;69.67
84271;BME280;74614;50.032;19.566;2024-01-30T08:34:25;100468.29;;;1.63;70.11
84271;BME280;74614;50.032;19.566;2024-01-30T08:36:23;100474.42;;;1.74;69.52
84271;BME280;74614;50.032;19.566;2024-01-30T08:38:24;100476.15;;;1.86;69.25
84271;BME280;74614;50.032;19.566;2024-01-30T08:40:25;100469.50;;;1.87;69.39
84271;BME280;74614;50.032;19.566;2024-01-30T08:42:28;100463.85;;;1.99;70.11
84271;BME280;74614;50.032;19.566;2024-01-30T08:44:24;100466.45;;;2.21;68.66
84271;BME280;74614;50.032;19.566;2024-01-30T08:46:25;100467.45;;;2.14;69.43
84271;BME280;74614;50.032;19.566;2024-01-30T08:48:28;100467.23;;;2.22;69.02
84271;BME280;74614;50.032;19.566;2024-01-30T08:50:25;100469.94;;;2.13;68.87
84271;BME280;74614;50.032;19.566;2024-01-30T08:52:25;100474.55;;;2.12;69.51
84271;BME280;74614;50.032;19.566;2024-01-30T08:54:25;100472.11;;;2.25;70.01
84271;BME280;74614;50.032;19.566;2024-01-30T08:56:24;100471.70;;;2.33;69.37
84271;BME280;74614;50.032;19.566;2024-01-30T08:58:25;100472.69;;;2.33;69.23
84271;BME280;74614;50.032;19.566;2024-01-30T09:00:28;100477.09;;;2.31;69.47
84271;BME280;74614;50.032;19.566;2024-01-30T09:02:24;100476.20;;;2.34;69.89
84271;BME280;74614;50.032;19.566;2024-01-30T09:04:27;100476.13;;;2.65;69.85
84271;BME280;74614;50.032;19.566;2024-01-30T09:06:24;100474.49;;;2.86;70.27
84271;BME280;74614;50.032;19.566;2024-01-30T09:08:24;100472.93;;;2.93;70.04
84271;BME280;74614;50.032;19.566;2024-01-30T09:10:25;100470.84;;;3.01;70.22
84271;BME280;74614;50.032;19.566;2024-01-30T09:12:25;100466.97;;;3.09;69.75
84271;BME280;74614;50.032;19.566;2024-01-30T09:14:28;100473.50;;;3.16;69.74
84271;BME280;74614;50.032;19.566;2024-01-30T09:16:26;100468.89;;;3.29;68.97
84271;BME280;74614;50.032;19.566;2024-01-30T09:18:27;100466.73;;;3.29;68.08
84271;BME280;74614;50.032;19.566;2024-01-30T09:20:30;100464.04;;;3.28;68.21
84271;BME280;74614;50.032;19.566;2024-01-30T09:22:22;100463.31;;;3.35;68.09
84271;BME280;74614;50.032;19.566;2024-01-30T09:24:26;100460.99;;;3.50;67.84
84271;BME280;74614;50.032;19.566;2024-01-30T09:26:24;100462.24;;;3.54;67.36
84271;BME280;74614;50.032;19.566;2024-01-30T09:28:24;100457.05;;;3.53;67.53
84271;BME280;74614;50.032;19.566;2024-01-30T09:30:29;100464.97;;;3.37;68.88
84271;BME280;74614;50.032;19.566;2024-01-30T09:32:27;100463.79;;;3.59;68.40
84271;BME280;74614;50.032;19.566;2024-01-30T09:34:27;100457.43;;;3.71;67.61
84271;BME280;74614;50.032;19.566;2024-01-30T09:36:25;100457.95;;;3.86;67.67
84271;BME280;74614;50.032;19.566;2024-01-30T09:38:25;100455.68;;;3.89;64.60
84271;BME280;74614;50.032;19.566;2024-01-30T09:40:25;100459.28;;;3.74;65.12
84271;BME280;74614;50.032;19.566;2024-01-30T09:42:33;100456.08;;;3.63;64.82
84271;BME280;74614;50.032;19.566;2024-01-30T09:44:26;100449.76;;;3.53;66.33
84271;BME280;74614;50.032;19.566;2024-01-30T09:46:27;100448.38;;;3.64;66.57
84271;BME280;74614;50.032;19.566;2024-01-30T09:48:24;100448.75;;;3.82;66.50
84271;BME280;74614;50.032;19.566;2024-01-30T09:50:24;100446.20;;;3.97;65.91
84271;BME280;74614;50.032;19.566;2024-01-30T09:52:23;100440.08;;;4.04;65.51
84271;BME280;74614;50.032;19.566;2024-01-30T09:54:23;100442.99;;;4.22;65.26
84271;BME280;74614;50.032;19.566;2024-01-30T09:56:26;100443.75;;;4.24;65.20
84271;BME280;74614;50.032;19.566;2024-01-30T09:58:24;100441.09;;;4.16;64.69
84271;BME280;74614;50.032;19.566;2024-01-30T10:00:36;100435.00;;;4.19;64.78
84271;BME280;74614;50.032;19.566;2024-01-30T10:02:25;100438.03;;;4.21;64.05
84271;BME280;74614;50.032;19.566;2024-01-30T10:04:24;100438.21;;;4.24;64.27
84271;BME280;74614;50.032;19.566;2024-01-30T10:06:26;100438.24;;;4.37;62.90
84271;BME280;74614;50.032;19.566;2024-01-30T10:08:23;100429.27;;;4.28;63.47
84271;BME280;74614;50.032;19.566;2024-01-30T10:10:26;100429.57;;;4.31;64.09
84271;BME280;74614;50.032;19.566;2024-01-30T10:12:26;100429.17;;;4.34;63.98
84271;BME280;74614;50.032;19.566;2024-01-30T10:14:29;100425.60;;;4.24;63.22
84271;BME280;74614;50.032;19.566;2024-01-30T10:16:31;100420.17;;;4.20;63.65
84271;BME280;74614;50.032;19.566;2024-01-30T10:18:29;100423.92;;;4.25;64.23
84271;BME280;74614;50.032;19.566;2024-01-30T10:20:27;100419.19;;;4.32;62.69
84271;BME280;74614;50.032;19.566;2024-01-30T10:22:28;100414.53;;;4.31;62.14
84271;BME280;74614;50.032;19.566;2024-01-30T10:25:26;100410.48;;;4.26;61.87
84271;BME280;74614;50.032;19.566;2024-01-30T10:27:26;100407.94;;;4.31;62.48
84271;BME280;74614;50.032;19.566;2024-01-30T10:29:37;100411.50;;;4.30;62.65